Time;durP1;ratioP1;P1;durP2;ratioP2;P2;SDS_P1;SDS_P2;PMS_P1;PMS_P2;Temp;Humidity;BMP_temperature;BMP_pressure;BME280_temperature;BME280_humidity;BME280_pressure;Samples;Min_cycle;Max_cycle;Signal;HPM_P1;HPM_P2
2023/01/02 00:01:36;;;;;;;15.95;5.68;;;12.90;99.90;;;;;;5033637;28;20021;-51
2023/01/02 00:04:02;;;;;;;11.40;5.97;;;12.90;99.90;;;;;;5033576;28;20087;-49
2023/01/02 00:06:31;;;;;;;10.00;5.05;;;12.80;99.90;;;;;;5032533;28;20037;-51
2023/01/02 00:08:57;;;;;;;9.25;5.63;;;12.80;99.90;;;;;;5033817;28;20414;-51
2023/01/02 00:11:22;;;;;;;9.20;4.72;;;12.80;99.90;;;;;;5033725;28;20030;-49
2023/01/02 00:13:47;;;;;;;9.88;5.40;;;12.70;99.90;;;;;;5032662;28;20064;-50
2023/01/02 00:16:13;;;;;;;12.93;5.30;;;12.80;99.90;;;;;;5033475;28;20108;-50
2023/01/02 00:18:38;;;;;;;12.00;6.00;;;12.70;99.90;;;;;;5032272;28;20030;-53
2023/01/02 00:21:05;;;;;;;10.65;5.43;;;12.70;99.90;;;;;;5033586;28;20029;-50
2023/01/02 00:23:32;;;;;;;12.05;5.28;;;12.70;99.90;;;;;;5032374;28;20512;-48
2023/01/02 00:25:57;;;;;;;16.08;6.55;;;12.70;99.90;;;;;;5033438;28;20041;-52
2023/01/02 00:28:23;;;;;;;14.05;6.07;;;12.60;99.90;;;;;;5033182;28;20036;-52
2023/01/02 00:30:50;;;;;;;11.10;5.10;;;12.70;99.90;;;;;;5032252;28;20092;-48
2023/01/02 00:33:15;;;;;;;12.30;5.50;;;12.60;99.90;;;;;;5032514;28;20087;-48
2023/01/02 00:35:41;;;;;;;10.77;6.18;;;12.60;99.90;;;;;;5033268;28;20057;-51
2023/01/02 00:38:06;;;;;;;8.05;5.50;;;12.60;99.90;;;;;;5077030;22;20045;-48
2023/01/02 00:40:32;;;;;;;14.48;6.20;;;12.50;99.90;;;;;;5072226;28;20028;-53
2023/01/02 00:42:58;;;;;;;12.52;5.18;;;12.60;99.90;;;;;;5072027;28;20048;-53
2023/01/02 00:45:24;;;;;;;14.75;5.68;;;12.50;99.90;;;;;;5072854;28;20103;-46
2023/01/02 00:47:50;;;;;;;14.25;5.88;;;12.60;99.90;;;;;;5072566;28;20036;-46
2023/01/02 00:50:16;;;;;;;12.48;4.90;;;12.60;99.90;;;;;;5072974;28;20032;-47
2023/01/02 00:52:41;;;;;;;11.10;5.38;;;12.50;99.90;;;;;;5071852;28;20472;-47
2023/01/02 00:55:07;;;;;;;13.20;6.25;;;12.50;99.90;;;;;;5072845;28;20031;-48
2023/01/02 00:57:32;;;;;;;33.88;16.98;;;12.50;99.90;;;;;;5072568;28;20029;-47
2023/01/02 00:59:58;;;;;;;14.85;8.50;;;12.50;99.90;;;;;;5072778;28;20025;-46
2023/01/02 01:02:23;;;;;;;16.50;6.43;;;12.50;99.90;;;;;;5071977;28;20108;-49
2023/01/02 01:04:49;;;;;;;12.13;6.10;;;12.50;99.90;;;;;;5072732;28;20362;-50
2023/01/02 01:07:15;;;;;;;14.05;6.63;;;12.50;99.90;;;;;;5054647;28;20024;-46
2023/01/02 01:09:40;;;;;;;10.35;5.90;;;12.50;99.90;;;;;;5072450;28;20031;-47
2023/01/02 01:12:06;;;;;;;11.02;6.22;;;12.50;99.90;;;;;;5071470;28;20492;-47
2023/01/02 01:14:31;;;;;;;10.68;5.55;;;12.50;99.90;;;;;;5071530;28;20035;-48
2023/01/02 01:16:57;;;;;;;9.18;5.40;;;12.50;99.90;;;;;;5071927;28;20024;-49
2023/01/02 01:19:22;;;;;;;12.07;6.30;;;12.50;99.90;;;;;;5054289;28;20028;-49
2023/01/02 01:21:48;;;;;;;13.77;6.22;;;12.50;99.90;;;;;;5071874;28;20411;-48
2023/01/02 01:24:14;;;;;;;11.15;5.32;;;12.50;99.90;;;;;;5071447;28;20060;-48
2023/01/02 01:26:40;;;;;;;11.75;5.72;;;12.50;99.90;;;;;;5072176;28;20032;-49
2023/01/02 01:29:05;;;;;;;10.15;5.63;;;12.50;99.90;;;;;;5072123;28;20032;-52
2023/01/02 01:31:31;;;;;;;10.25;5.25;;;12.50;99.90;;;;;;5071918;28;20103;-51
2023/01/02 01:33:56;;;;;;;13.45;6.10;;;12.50;99.90;;;;;;5071502;28;20028;-50
2023/01/02 01:36:23;;;;;;;7.78;4.68;;;12.60;99.90;;;;;;5072321;28;20464;-48
2023/01/02 01:38:49;;;;;;;9.55;5.32;;;12.60;99.90;;;;;;5070938;28;20036;-49
2023/01/02 01:41:20;;;;;;;12.15;4.85;;;12.60;99.90;;;;;;5071826;28;20362;-47
2023/01/02 01:43:52;;;;;;;16.30;5.45;;;12.70;99.90;;;;;;5071066;28;20021;-47
2023/01/02 01:46:21;;;;;;;11.88;5.00;;;12.70;99.90;;;;;;5071783;28;20023;-47
2023/01/02 01:48:51;;;;;;;5.90;4.50;;;12.70;99.90;;;;;;5071714;28;20021;-51
2023/01/02 01:51:18;;;;;;;10.68;5.13;;;12.70;99.90;;;;;;5071763;28;20116;-50
2023/01/02 01:53:46;;;;;;;8.35;4.70;;;12.70;99.90;;;;;;5053022;28;20055;-48
2023/01/02 01:56:13;;;;;;;8.63;5.32;;;12.70;99.90;;;;;;5071775;28;20515;-50
2023/01/02 01:58:42;;;;;;;10.15;5.32;;;12.70;99.90;;;;;;5071578;28;20023;-46
2023/01/02 02:01:09;;;;;;;16.38;4.88;;;12.70;99.90;;;;;;5071589;28;20023;-47
2023/01/02 02:03:36;;;;;;;10.88;5.28;;;12.70;99.90;;;;;;5070927;28;20116;-47
2023/01/02 02:06:03;;;;;;;12.80;5.90;;;12.60;99.90;;;;;;5053521;28;20028;-48
2023/01/02 02:08:34;;;;;;;12.25;5.90;;;12.60;99.90;;;;;;5071561;28;20035;-48
2023/01/02 02:11:00;;;;;;;13.55;5.38;;;12.60;99.90;;;;;;5053553;28;20514;-46
2023/01/02 02:13:28;;;;;;;11.43;5.90;;;12.60;99.90;;;;;;5070673;28;20028;-49
2023/01/02 02:16:19;;;;;;;15.27;6.47;;;12.60;99.90;;;;;;5071323;28;20158;-46
2023/01/02 02:18:59;;;;;;;12.77;5.18;;;12.50;99.90;;;;;;5053520;28;20060;-46
2023/01/02 02:21:51;;;;;;;11.73;5.35;;;12.50;99.90;;;;;;5071538;28;20031;-49
2023/01/02 02:24:26;;;;;;;10.25;5.72;;;12.50;99.90;;;;;;5071044;28;20030;-47
2023/01/02 02:27:06;;;;;;;10.65;6.10;;;12.50;99.90;;;;;;5074891;28;20021;-47
2023/01/02 02:29:57;;;;;;;10.23;5.40;;;12.50;99.90;;;;;;5075411;28;20034;-48
2023/01/02 02:32:28;;;;;;;17.05;5.30;;;12.40;99.90;;;;;;5074633;28;20025;-47
2023/01/02 02:35:18;;;;;;;14.10;5.28;;;12.40;99.90;;;;;;5075276;28;20024;-49
2023/01/02 02:37:58;;;;;;;9.43;5.18;;;12.40;99.90;;;;;;5057181;28;20025;-48
2023/01/02 02:40:42;;;;;;;9.07;5.22;;;12.40;99.90;;;;;;5056333;28;20027;-49
2023/01/02 02:43:21;;;;;;;7.00;4.55;;;12.40;99.90;;;;;;5056394;28;20028;-48
2023/01/02 02:46:14;;;;;;;22.92;6.50;;;12.40;99.90;;;;;;5057069;28;20066;-49
2023/01/02 02:49:04;;;;;;;10.40;4.40;;;12.40;99.90;;;;;;5075115;28;20417;-50
2023/01/02 02:51:48;;;;;;;8.50;5.05;;;12.40;99.90;;;;;;5074962;28;20028;-50
2023/01/02 02:54:17;;;;;;;16.38;5.75;;;12.40;99.90;;;;;;5074439;28;20025;-46
2023/01/02 02:56:45;;;;;;;12.05;5.70;;;12.30;99.90;;;;;;5056911;28;20025;-49
2023/01/02 02:59:11;;;;;;;16.75;6.13;;;12.30;99.90;;;;;;5074632;28;20104;-47
2023/01/02 03:01:37;;;;;;;10.02;4.82;;;12.30;99.90;;;;;;5074732;28;20052;-51
2023/01/02 03:04:07;;;;;;;10.88;4.88;;;12.30;99.90;;;;;;5073760;28;20028;-47
2023/01/02 03:07:04;;;;;;;11.15;5.03;;;12.30;99.90;;;;;;5074700;28;20043;-49
2023/01/02 03:09:42;;;;;;;8.27;5.20;;;12.30;99.90;;;;;;5075444;28;20415;-46
2023/01/02 03:12:43;;;;;;;9.93;5.75;;;12.20;99.90;;;;;;5073881;28;20033;-47
2023/01/02 03:15:23;;;;;;;11.45;5.35;;;12.20;99.90;;;;;;5058242;28;20032;-48
2023/01/02 03:18:30;;;;;;;8.65;5.28;;;12.20;99.90;;;;;;5074493;28;20047;-49
2023/01/02 03:21:04;;;;;;;;;;;12.20;99.90;;;;;;5032566;28;20040;-47
2023/01/02 03:23:35;;;;;;;11.77;5.13;;;12.20;99.90;;;;;;5050107;28;19908;-48
2023/01/02 03:26:03;;;;;;;11.05;6.05;;;12.20;99.90;;;;;;5056286;28;20492;-47
2023/01/02 03:28:31;;;;;;;14.55;6.45;;;12.20;99.90;;;;;;5056350;28;20027;-47
2023/01/02 03:31:01;;;;;;;17.83;5.40;;;12.20;99.90;;;;;;5074338;28;20085;-48
2023/01/02 03:33:30;;;;;;;16.42;5.85;;;12.20;99.90;;;;;;5073581;28;20025;-47
2023/01/02 03:36:00;;;;;;;14.38;5.88;;;12.20;99.90;;;;;;5074226;28;20024;-49
2023/01/02 03:38:35;;;;;;;11.13;4.97;;;12.30;99.90;;;;;;5073439;28;20032;-47
2023/01/02 03:41:10;;;;;;;10.93;5.18;;;12.40;99.90;;;;;;5073123;28;20021;-48
2023/01/02 03:43:39;;;;;;;7.90;4.82;;;12.30;99.90;;;;;;5073634;28;20031;-48
2023/01/02 03:46:25;;;;;;;14.00;5.60;;;12.30;99.90;;;;;;5074295;28;20024;-47
2023/01/02 03:49:00;;;;;;;15.60;5.82;;;12.20;99.90;;;;;;5074131;28;20032;-47
2023/01/02 03:51:26;;;;;;;8.52;5.55;;;12.30;99.90;;;;;;5073868;28;20020;-49
2023/01/02 03:53:53;;;;;;;7.93;4.03;;;12.30;99.90;;;;;;5055501;28;20492;-47
2023/01/02 03:56:38;;;;;;;17.15;5.38;;;12.30;99.90;;;;;;5073913;28;20039;-47
2023/01/02 03:59:35;;;;;;;18.92;5.68;;;12.30;99.90;;;;;;5074003;28;20024;-48
2023/01/02 04:02:17;;;;;;;11.00;4.95;;;12.30;99.90;;;;;;5073411;28;20404;-47
2023/01/02 04:04:54;;;;;;;11.98;4.93;;;12.20;99.90;;;;;;5073797;28;20099;-46
2023/01/02 04:07:25;;;;;;;9.20;5.03;;;12.10;99.90;;;;;;5055553;28;20023;-49
2023/01/02 04:09:51;;;;;;;15.52;5.05;;;12.10;99.90;;;;;;5055732;28;20020;-49
2023/01/02 04:12:19;;;;;;;11.18;6.22;;;12.10;99.90;;;;;;5072695;28;20103;-48
2023/01/02 04:14:52;;;;;;;8.27;4.85;;;12.00;99.90;;;;;;5073761;28;20028;-49
2023/01/02 04:17:21;;;;;;;8.20;4.40;;;12.00;99.90;;;;;;5073339;28;20035;-49
2023/01/02 04:19:51;;;;;;;13.50;5.70;;;11.90;99.90;;;;;;5073513;28;20031;-49
2023/01/02 04:22:33;;;;;;;9.68;4.95;;;11.90;99.90;;;;;;5072736;28;20111;-50
2023/01/02 04:25:10;;;;;;;10.38;5.88;;;11.90;99.90;;;;;;5073457;28;20029;-48
2023/01/02 04:27:52;;;;;;;12.35;6.38;;;11.90;99.90;;;;;;5073016;28;20027;-52
2023/01/02 04:30:17;;;;;;;11.98;5.10;;;11.80;99.90;;;;;;5055188;28;20081;-51
2023/01/02 04:32:44;;;;;;;10.88;4.90;;;11.80;99.90;;;;;;5072318;28;20376;-50
2023/01/02 04:35:20;;;;;;;8.95;4.25;;;11.80;99.90;;;;;;5055087;28;20025;-51
2023/01/02 04:37:46;;;;;;;13.05;5.28;;;11.80;99.90;;;;;;5054780;28;20031;-52
2023/01/02 04:40:22;;;;;;;12.80;4.57;;;11.90;99.90;;;;;;5054067;28;20448;-49
2023/01/02 04:42:48;;;;;;;10.25;4.32;;;11.90;99.90;;;;;;5072198;28;20103;-51
2023/01/02 04:45:13;;;;;;;10.00;5.38;;;12.00;99.90;;;;;;5072807;28;20052;-49
2023/01/02 04:47:39;;;;;;;9.90;4.45;;;12.00;99.90;;;;;;5072901;28;20450;-48
2023/01/02 04:50:06;;;;;;;6.85;4.65;;;12.10;99.90;;;;;;5072192;28;20035;-48
2023/01/02 04:52:31;;;;;;;9.68;4.57;;;12.10;99.90;;;;;;5072590;28;20031;-53
2023/01/02 04:54:57;;;;;;;12.68;4.97;;;12.10;99.90;;;;;;5054949;28;20017;-51
2023/01/02 04:57:23;;;;;;;12.93;5.80;;;12.10;99.90;;;;;;5072421;28;20511;-51
2023/01/02 04:59:48;;;;;;;10.27;4.85;;;12.10;99.90;;;;;;5072652;28;20086;-49
2023/01/02 05:02:14;;;;;;;14.70;4.70;;;12.10;99.90;;;;;;5071966;28;20100;-48
2023/01/02 05:04:39;;;;;;;11.98;6.07;;;12.10;99.90;;;;;;5072965;28;20037;-48
2023/01/02 05:07:05;;;;;;;7.07;4.60;;;12.10;99.90;;;;;;5054701;28;20118;-48
2023/01/02 05:09:31;;;;;;;10.73;5.15;;;12.10;99.90;;;;;;5072374;28;20067;-47
2023/01/02 05:11:56;;;;;;;9.13;4.50;;;12.20;99.90;;;;;;5071526;28;20060;-50
2023/01/02 05:14:22;;;;;;;10.40;4.40;;;12.20;99.90;;;;;;5072405;28;20029;-49
2023/01/02 05:16:47;;;;;;;6.18;3.63;;;12.20;99.90;;;;;;5072477;28;20024;-48
2023/01/02 05:19:13;;;;;;;12.02;4.88;;;12.20;99.90;;;;;;5072329;28;20028;-46
2023/01/02 05:24:24;;;;;;;9.00;4.53;;;12.10;99.90;;;;;;5072254;28;20510;-52
2023/01/02 05:26:49;;;;;;;11.02;4.75;;;12.10;99.90;;;;;;5071902;28;20036;-51
2023/01/02 05:29:15;;;;;;;11.32;4.40;;;12.10;99.90;;;;;;5072007;28;20147;-49
2023/01/02 05:31:40;;;;;;;11.93;5.30;;;12.00;99.90;;;;;;5071925;28;20598;-49
2023/01/02 05:34:06;;;;;;;9.55;4.15;;;12.10;99.90;;;;;;5071148;28;20036;-47
2023/01/02 05:36:31;;;;;;;9.32;4.20;;;12.00;99.90;;;;;;5071937;28;20496;-48
2023/01/02 05:38:58;;;;;;;9.68;4.95;;;12.00;99.90;;;;;;5070696;28;20024;-47
2023/01/02 05:41:23;;;;;;;11.30;4.30;;;12.10;99.90;;;;;;5071829;28;20103;-50
2023/01/02 05:43:48;;;;;;;6.07;3.90;;;12.10;99.90;;;;;;5071026;28;20111;-49
2023/01/02 05:46:17;;;;;;;8.20;4.47;;;12.10;99.90;;;;;;5071712;28;20208;-49
2023/01/02 05:48:43;;;;;;;7.18;4.18;;;12.10;99.90;;;;;;5071722;28;20075;-50
2023/01/02 05:51:12;;;;;;;9.38;4.78;;;12.10;99.90;;;;;;5071670;28;20035;-51
2023/01/02 05:53:37;;;;;;;10.15;4.72;;;12.10;99.90;;;;;;5070644;28;20033;-48
2023/01/02 05:56:21;;;;;;;12.23;5.88;;;12.10;99.90;;;;;;5071520;28;20031;-50
2023/01/02 05:58:49;;;;;;;7.40;4.78;;;12.00;99.90;;;;;;5053491;28;20070;-49
2023/01/02 06:01:20;;;;;;;15.63;5.10;;;12.00;99.90;;;;;;5071291;28;20052;-46
2023/01/02 06:03:47;;;;;;;9.00;4.65;;;12.00;99.90;;;;;;5070673;28;20535;-50
2023/01/02 06:06:13;;;;;;;8.88;4.20;;;12.00;99.90;;;;;;5071277;28;20047;-51
2023/01/02 06:08:39;;;;;;;8.15;4.57;;;12.00;99.90;;;;;;5071337;28;20028;-49
2023/01/02 06:11:05;;;;;;;9.85;4.30;;;12.00;99.90;;;;;;5071399;28;20115;-49
2023/01/02 06:13:33;;;;;;;17.70;4.43;;;12.00;99.90;;;;;;5070617;28;20025;-47
2023/01/02 06:16:01;;;;;;;7.43;3.78;;;12.10;99.90;;;;;;5071431;28;20086;-49
2023/01/02 06:18:28;;;;;;;7.28;3.78;;;12.10;99.90;;;;;;5071294;28;20017;-53
2023/01/02 06:21:02;;;;;;;11.75;4.40;;;12.20;99.90;;;;;;5071453;28;20054;-45
2023/01/02 06:23:28;;;;;;;10.18;5.28;;;12.20;99.90;;;;;;5070426;28;20078;-47
2023/01/02 06:25:53;;;;;;;6.82;4.18;;;12.20;99.90;;;;;;5053341;28;20024;-48
2023/01/02 06:28:19;;;;;;;7.13;3.97;;;12.20;99.90;;;;;;5071161;28;20074;-52
2023/01/02 06:30:45;;;;;;;9.30;4.00;;;12.20;99.90;;;;;;5071318;28;20024;-50
2023/01/02 06:33:10;;;;;;;8.30;4.47;;;12.30;99.90;;;;;;5070331;28;20035;-50
2023/01/02 06:35:36;;;;;;;9.35;4.43;;;12.30;99.90;;;;;;5071125;28;20039;-52
2023/01/02 06:38:01;;;;;;;6.97;3.95;;;12.30;99.90;;;;;;5072184;28;20032;-50
2023/01/02 06:40:27;;;;;;;9.80;3.63;;;12.30;99.90;;;;;;5070153;28;20029;-46
2023/01/02 06:42:52;;;;;;;5.28;3.70;;;12.30;99.90;;;;;;5070719;28;20025;-49
2023/01/02 06:45:18;;;;;;;13.23;4.47;;;12.20;99.90;;;;;;5072016;28;20546;-52
2023/01/02 06:47:43;;;;;;;9.00;4.70;;;12.30;99.90;;;;;;5070976;28;20115;-46
2023/01/02 06:50:09;;;;;;;8.27;4.22;;;12.30;99.90;;;;;;5071128;28;20024;-47
2023/01/02 06:52:35;;;;;;;15.00;4.63;;;12.30;99.90;;;;;;5070636;28;20020;-49
2023/01/02 06:55:00;;;;;;;10.15;3.78;;;12.30;99.90;;;;;;5071151;28;20025;-49
2023/01/02 06:57:29;;;;;;;10.05;4.55;;;12.30;99.90;;;;;;5070856;28;20027;-52
2023/01/02 06:59:54;;;;;;;7.28;3.75;;;12.30;99.90;;;;;;5071859;28;20103;-50
2023/01/02 07:02:20;;;;;;;15.63;4.90;;;12.30;99.90;;;;;;5052870;28;20055;-47
2023/01/02 07:04:45;;;;;;;5.88;4.25;;;12.30;99.90;;;;;;5053581;28;20074;-47
2023/01/02 07:07:11;;;;;;;8.52;4.20;;;12.30;99.90;;;;;;5071292;28;20052;-49
2023/01/02 07:09:36;;;;;;;9.23;3.88;;;12.30;99.90;;;;;;5071379;28;20060;-52
2023/01/02 07:12:03;;;;;;;8.80;3.78;;;12.20;99.90;;;;;;5070790;28;20024;-47
2023/01/02 07:14:28;;;;;;;11.55;4.18;;;12.20;99.90;;;;;;5074296;28;20476;-49
2023/01/02 07:16:54;;;;;;;10.93;4.60;;;12.20;99.90;;;;;;5074473;28;20066;-50
2023/01/02 07:19:19;;;;;;;12.82;4.70;;;12.20;99.90;;;;;;5074531;28;20017;-50
2023/01/02 07:21:45;;;;;;;9.57;4.28;;;12.30;99.90;;;;;;5074524;28;20051;-48
2023/01/02 07:24:12;;;;;;;11.85;4.20;;;12.20;99.90;;;;;;5073729;28;20043;-53
2023/01/02 07:26:37;;;;;;;10.20;4.88;;;12.30;99.90;;;;;;5074436;28;20488;-49
2023/01/02 07:29:03;;;;;;;10.52;4.03;;;12.30;99.90;;;;;;5074077;28;20028;-52
2023/01/02 07:31:28;;;;;;;10.43;4.25;;;12.20;99.90;;;;;;5074340;28;20116;-50
2023/01/02 07:33:54;;;;;;;7.82;3.38;;;12.30;99.90;;;;;;5073352;28;20048;-53
2023/01/02 07:36:21;;;;;;;5.40;3.50;;;12.30;99.90;;;;;;5074252;28;20105;-49
2023/01/02 07:38:54;;;;;;;6.68;3.67;;;12.40;99.90;;;;;;5073251;28;20047;-46
2023/01/02 07:41:22;;;;;;;13.70;4.30;;;12.40;99.90;;;;;;5074030;28;20028;-47
2023/01/02 07:43:48;;;;;;;8.57;3.63;;;12.40;99.90;;;;;;5073640;28;20032;-53
2023/01/02 07:46:17;;;;;;;11.52;4.00;;;12.40;99.90;;;;;;5055736;28;20391;-47
2023/01/02 07:48:43;;;;;;;11.88;3.75;;;12.40;99.90;;;;;;5073555;28;20033;-48
2023/01/02 07:51:09;;;;;;;8.48;3.40;;;12.40;99.90;;;;;;5073977;28;20028;-50
2023/01/02 07:53:35;;;;;;;11.00;3.97;;;12.40;99.90;;;;;;5072998;28;20549;-50
2023/01/02 07:56:01;;;;;;;8.43;3.92;;;12.40;99.90;;;;;;5055736;28;20033;-47
2023/01/02 07:58:27;;;;;;;9.32;3.58;;;12.40;99.90;;;;;;5073622;28;20066;-50
2023/01/02 08:00:53;;;;;;;7.43;3.25;;;12.40;99.90;;;;;;5073690;28;20033;-52
2023/01/02 08:03:19;;;;;;;7.65;3.28;;;12.50;99.90;;;;;;5072955;28;20441;-48
2023/01/02 08:05:44;;;;;;;14.63;3.78;;;12.50;99.90;;;;;;5055419;28;20484;-50
2023/01/02 08:08:10;;;;;;;8.70;3.17;;;12.60;99.90;;;;;;5073509;28;20396;-51
2023/01/02 08:10:36;;;;;;;10.32;3.35;;;12.60;99.90;;;;;;5073625;28;20111;-50
2023/01/02 08:13:03;;;;;;;10.48;3.33;;;12.60;99.90;;;;;;5072910;28;20020;-51
2023/01/02 08:15:29;;;;;;;10.27;3.25;;;12.60;99.90;;;;;;5055618;28;20078;-49
2023/01/02 08:17:55;;;;;;;9.38;3.20;;;12.60;99.90;;;;;;5073453;28;20092;-51
2023/01/02 08:20:21;;;;;;;13.35;3.85;;;12.70;99.90;;;;;;5073161;28;20024;-50
2023/01/02 08:22:47;;;;;;;10.60;3.35;;;12.70;99.90;;;;;;5072502;28;20515;-52
2023/01/02 08:25:12;;;;;;;8.73;3.88;;;12.70;99.90;;;;;;5073254;28;20028;-48
2023/01/02 08:27:38;;;;;;;13.57;3.08;;;12.80;99.90;;;;;;5073143;28;20443;-53
2023/01/02 08:30:04;;;;;;;17.48;3.20;;;12.90;99.90;;;;;;5072975;28;20035;-50
2023/01/02 08:32:29;;;;;;;7.65;3.35;;;12.90;99.90;;;;;;5072220;28;20032;-50
2023/01/02 08:34:55;;;;;;;11.35;3.60;;;13.00;99.90;;;;;;5072566;28;20511;-49
2023/01/02 08:37:20;;;;;;;15.20;3.25;;;13.00;99.90;;;;;;5072714;28;20032;-48
2023/01/02 08:39:46;;;;;;;8.93;2.95;;;13.10;99.90;;;;;;5054409;28;20028;-47
2023/01/02 08:42:11;;;;;;;12.63;3.08;;;13.10;99.90;;;;;;5072276;28;20377;-51
2023/01/02 08:44:37;;;;;;;8.95;2.97;;;13.20;99.90;;;;;;5066717;28;20464;-48
2023/01/02 08:47:05;;;;;;;10.70;3.40;;;13.20;99.90;;;;;;5066164;28;20512;-46
2023/01/02 08:49:31;;;;;;;12.85;3.63;;;13.20;99.90;;;;;;5059517;28;20032;-47
2023/01/02 08:51:56;;;;;;;10.98;2.78;;;13.20;99.90;;;;;;5070883;28;20055;-48
2023/01/02 08:54:22;;;;;;;7.13;2.85;;;13.20;99.90;;;;;;5072034;28;20401;-52
2023/01/02 08:56:48;;;;;;;15.10;3.17;;;13.30;99.90;;;;;;5072142;28;20036;-48
2023/01/02 08:59:13;;;;;;;14.75;2.60;;;13.30;99.90;;;;;;5072316;28;20039;-45
2023/01/02 09:01:39;;;;;;;6.57;2.90;;;13.50;99.90;;;;;;5072712;28;20493;-47
2023/01/02 09:04:06;;;;;;;13.52;3.22;;;13.40;99.90;;;;;;5057749;28;20488;-49
2023/01/02 09:06:34;;;;;;;8.48;3.03;;;13.40;99.90;;;;;;5054317;28;20394;-46
2023/01/02 09:09:00;;;;;;;10.23;4.03;;;13.40;99.90;;;;;;5072241;28;20016;-46
2023/01/02 09:11:31;;;;;;;11.93;3.25;;;13.30;99.90;;;;;;5072017;28;20024;-50
2023/01/02 09:13:58;;;;;;;19.77;3.60;;;13.40;99.90;;;;;;5067248;28;20021;-47
2023/01/02 09:16:24;;;;;;;13.60;3.00;;;13.40;99.90;;;;;;5069963;28;20028;-44
2023/01/02 09:18:51;;;;;;;9.63;3.63;;;13.40;99.90;;;;;;5063048;28;20025;-45
2023/01/02 09:21:16;;;;;;;12.10;3.53;;;13.40;99.90;;;;;;5071768;28;20100;-50
2023/01/02 09:23:42;;;;;;;9.32;3.03;;;13.40;99.90;;;;;;5070398;28;20543;-49
2023/01/02 09:26:10;;;;;;;10.27;2.88;;;13.40;99.90;;;;;;5072189;28;20024;-50
2023/01/02 09:28:36;;;;;;;13.57;2.78;;;13.50;99.90;;;;;;5070526;28;20056;-48
2023/01/02 09:31:10;;;;;;;14.68;2.60;;;13.60;99.90;;;;;;5069280;28;20067;-49
2023/01/02 09:33:35;;;;;;;14.63;3.15;;;13.70;99.90;;;;;;5070806;28;20438;-50
2023/01/02 09:36:02;;;;;;;20.88;3.13;;;13.70;99.90;;;;;;5053309;28;20028;-48
2023/01/02 09:38:28;;;;;;;15.00;3.05;;;13.80;99.90;;;;;;5053315;28;20028;-50
2023/01/02 09:40:54;;;;;;;12.00;2.92;;;13.80;99.90;;;;;;5070890;28;20538;-47
2023/01/02 09:43:34;;;;;;;10.13;3.13;;;13.80;99.90;;;;;;5048578;28;20028;-45
2023/01/02 09:46:01;;;;;;;7.97;3.15;;;13.90;99.90;;;;;;5057776;28;20103;-49
2023/01/02 09:48:31;;;;;;;12.80;3.00;;;13.90;99.90;;;;;;5053533;28;20082;-48
2023/01/02 09:50:57;;;;;;;20.63;3.55;;;13.90;99.90;;;;;;5071552;28;20055;-47
2023/01/02 09:53:24;;;;;;;9.82;3.53;;;13.90;99.90;;;;;;5070885;28;20484;-48
2023/01/02 09:56:00;;;;;;;12.98;3.05;;;14.00;99.90;;;;;;5071372;28;20028;-46
2023/01/02 09:58:47;;;;;;;9.55;2.97;;;14.00;99.90;;;;;;5064612;28;20025;-45
2023/01/02 10:01:25;;;;;;;12.25;2.90;;;14.10;99.90;;;;;;5071960;28;20667;-46
2023/01/02 10:04:04;;;;;;;14.38;2.70;;;14.10;99.90;;;;;;5066689;28;20032;-41
2023/01/02 10:06:45;;;;;;;13.93;2.72;;;14.00;99.90;;;;;;5049864;28;20140;-49
2023/01/02 10:09:34;;;;;;;14.95;3.08;;;14.10;99.90;;;;;;5052666;28;20060;-47
2023/01/02 10:12:05;;;;;;;8.20;2.72;;;14.10;99.90;;;;;;5049382;28;20185;-46
2023/01/02 10:14:50;;;;;;;7.28;2.35;;;14.10;99.90;;;;;;5051021;28;20033;-46
2023/01/02 10:17:16;;;;;;;10.27;2.65;;;14.20;99.90;;;;;;5050981;28;20021;-49
2023/01/02 10:20:05;;;;;;;11.48;3.42;;;14.20;99.90;;;;;;5050931;28;20025;-43
2023/01/02 10:22:45;;;;;;;10.05;2.50;;;14.30;99.90;;;;;;5067321;28;20066;-49
2023/01/02 10:25:32;;;;;;;13.27;2.80;;;14.30;99.90;;;;;;5070969;28;20032;-47
2023/01/02 10:28:11;;;;;;;15.32;3.25;;;14.30;99.90;;;;;;5070354;28;20052;-48
2023/01/02 10:30:42;;;;;;;15.05;3.00;;;14.30;99.90;;;;;;5065013;28;20017;-50
2023/01/02 10:33:29;;;;;;;11.70;2.92;;;14.30;99.90;;;;;;5070672;28;20430;-47
2023/01/02 10:35:59;;;;;;;12.20;3.78;;;14.30;99.90;;;;;;5070477;28;20032;-51
2023/01/02 10:38:33;;;;;;;8.45;2.63;;;14.30;99.90;;;;;;5071053;28;20081;-48
2023/01/02 10:40:59;;;;;;;10.38;2.75;;;14.30;99.90;;;;;;5053429;28;20291;-47
2023/01/02 10:43:25;;;;;;;6.90;2.35;;;14.30;99.90;;;;;;5070468;28;20123;-50
2023/01/02 10:45:51;;;;;;;12.32;2.85;;;14.40;99.90;;;;;;5053294;28;20487;-48
2023/01/02 10:48:19;;;;;;;10.15;2.55;;;14.30;99.90;;;;;;5056033;28;20101;-44
2023/01/02 10:50:52;;;;;;;18.58;3.47;;;14.40;99.90;;;;;;5057011;28;20549;-46
2023/01/02 10:53:34;;;;;;;12.45;3.50;;;14.30;99.90;;;;;;5048140;28;20036;-50
2023/01/02 10:56:01;;;;;;;10.63;4.55;;;14.40;99.90;;;;;;5063513;28;20028;-46
2023/01/02 10:58:29;;;;;;;7.25;3.17;;;14.40;99.90;;;;;;5071997;28;20027;-47
2023/01/02 11:01:06;;;;;;;11.65;3.22;;;14.40;99.90;;;;;;5068070;28;20027;-44
2023/01/02 11:03:33;;;;;;;7.85;2.78;;;14.40;99.90;;;;;;5064542;28;20237;-48
2023/01/02 11:05:59;;;;;;;12.05;2.58;;;14.40;99.90;;;;;;5062781;28;20067;-47
2023/01/02 11:08:37;;;;;;;10.98;2.42;;;14.30;99.90;;;;;;5062009;28;20020;-48
2023/01/02 11:11:33;;;;;;;8.52;3.10;;;14.30;99.90;;;;;;5046073;28;20039;-47
2023/01/02 11:14:06;;;;;;;10.23;3.35;;;14.20;99.90;;;;;;5042718;28;20040;-45
2023/01/02 11:16:37;;;;;;;6.50;2.63;;;14.10;99.90;;;;;;5063078;28;21106;-44
2023/01/02 11:19:06;;;;;;;10.48;3.20;;;14.10;99.90;;;;;;5054180;28;20040;-48
2023/01/02 11:21:37;;;;;;;5.18;2.92;;;14.00;99.90;;;;;;5054475;28;20017;-46
2023/01/02 11:24:15;;;;;;;5.47;2.45;;;14.00;99.90;;;;;;5054062;28;20052;-50
2023/01/02 11:26:43;;;;;;;7.93;2.47;;;14.00;99.90;;;;;;5054774;28;20025;-47
2023/01/02 11:29:18;;;;;;;7.15;2.10;;;13.90;99.90;;;;;;5057387;28;20025;-47
2023/01/02 11:31:46;;;;;;;12.30;2.65;;;13.90;99.90;;;;;;5074268;28;20032;-51
2023/01/02 11:34:20;;;;;;;8.02;2.80;;;13.90;99.90;;;;;;5073947;28;20031;-53
2023/01/02 11:37:13;;;;;;;12.32;2.63;;;13.80;99.90;;;;;;5074124;28;20162;-50
2023/01/02 11:39:40;;;;;;;6.88;2.10;;;13.80;99.90;;;;;;5074233;28;20024;-52
2023/01/02 11:45:04;;;;;;;4.90;2.35;;;13.70;99.90;;;;;;5074625;28;20063;-50
2023/01/02 11:47:42;;;;;;;8.68;2.58;;;13.70;99.90;;;;;;5073936;28;20032;-48
2023/01/02 11:50:15;;;;;;;9.57;2.40;;;13.70;99.90;;;;;;5074229;28;20503;-47
2023/01/02 11:52:48;;;;;;;6.40;3.30;;;13.70;99.90;;;;;;5073163;28;20082;-47
2023/01/02 11:55:47;;;;;;;9.15;2.90;;;13.70;99.90;;;;;;5074400;28;20048;-47
2023/01/02 11:58:29;;;;;;;6.35;2.80;;;13.70;99.90;;;;;;5073358;28;20463;-47
2023/01/02 12:01:08;;;;;;;12.23;2.92;;;13.60;99.90;;;;;;5067835;28;20013;-51
2023/01/02 12:03:34;;;;;;;9.63;4.53;;;13.60;99.90;;;;;;5072154;28;20071;-52
2023/01/02 12:06:17;;;;;;;6.43;2.83;;;13.60;99.90;;;;;;5073238;28;20077;-47
2023/01/02 12:09:01;;;;;;;10.57;2.80;;;13.60;99.90;;;;;;5073482;28;20024;-49
2023/01/02 12:11:49;;;;;;;9.20;2.75;;;13.50;99.90;;;;;;5074056;28;20020;-50
2023/01/02 12:14:16;;;;;;;9.38;2.80;;;13.60;99.90;;;;;;5072624;28;20035;-47
2023/01/02 12:16:50;;;;;;;8.60;3.25;;;13.60;99.90;;;;;;5073483;28;20503;-50
2023/01/02 12:19:40;;;;;;;12.38;3.50;;;13.50;99.90;;;;;;5073427;28;20033;-50
2023/01/02 12:22:22;;;;;;;16.95;4.15;;;13.60;99.90;;;;;;5055240;28;20036;-50
2023/01/02 12:25:06;;;;;;;8.18;3.10;;;13.50;99.90;;;;;;5054269;28;20057;-48
2023/01/02 12:27:47;;;;;;;12.93;3.85;;;13.50;99.90;;;;;;5065554;28;20120;-50
2023/01/02 12:30:18;;;;;;;11.90;3.33;;;13.50;99.90;;;;;;5064725;28;20085;-48
2023/01/02 12:33:11;;;;;;;12.10;3.50;;;13.40;99.90;;;;;;5071942;28;20516;-50
2023/01/02 12:35:51;;;;;;;7.10;2.72;;;13.40;99.90;;;;;;5073232;28;20024;-53
2023/01/02 12:38:43;;;;;;;8.02;3.22;;;13.50;99.90;;;;;;5073863;28;20029;-49
2023/01/02 12:42:02;;;;;;;14.30;3.90;;;13.40;99.90;;;;;;5073087;28;20029;-47
2023/01/02 12:44:33;;;;;;;10.80;2.88;;;13.40;99.90;;;;;;4991243;28;20509;-53
2023/01/02 12:47:07;;;;;;;7.90;3.08;;;13.40;99.90;;;;;;5068392;28;20119;-50
2023/01/02 12:49:39;;;;;;;8.23;3.35;;;13.40;99.90;;;;;;5072633;28;20040;-48
2023/01/02 12:52:18;;;;;;;6.78;3.08;;;13.50;99.90;;;;;;5072881;28;20027;-49
2023/01/02 12:55:05;;;;;;;9.95;3.90;;;13.40;99.90;;;;;;5071534;28;20115;-48
2023/01/02 12:57:33;;;;;;;8.45;2.80;;;13.40;99.90;;;;;;5072035;28;20438;-49
2023/01/02 13:00:22;;;;;;;8.02;3.17;;;13.40;99.90;;;;;;5072463;28;20024;-48
2023/01/02 13:02:59;;;;;;;10.40;4.70;;;13.40;99.90;;;;;;5062952;28;20515;-46
2023/01/02 13:05:28;;;;;;;27.20;7.13;;;13.30;99.90;;;;;;5052143;28;20109;-52